Time;durP1;ratioP1;P1;durP2;ratioP2;P2;SDS_P1;SDS_P2;PMS_P1;PMS_P2;Temp;Humidity;BMP_temperature;BMP_pressure;BME280_temperature;BME280_humidity;BME280_pressure;Samples;Min_cycle;Max_cycle;Signal;HPM_P1;HPM_P2
2022/12/01 05:31:04;;;;;;;;;42.25;38.50;;;;;;;;5269400;24;46196;-59
2022/12/01 05:33:29;;;;;;;;;39.75;36.25;;;;;;;;4700295;30;45286;-58
2022/12/01 05:35:55;;;;;;;;;54.00;39.00;;;;;;;;4699910;30;45385;-58
2022/12/01 05:38:20;;;;;;;;;45.00;35.50;;;;;;;;4698330;30;45503;-59
2022/12/01 05:40:52;;;;;;;;;44.00;35.75;;;;;;;;4703886;30;45460;-58
2022/12/01 05:43:17;;;;;;;;;53.50;41.50;;;;;;;;4702958;30;45479;-58
2022/12/01 05:45:43;;;;;;;;;46.25;36.00;;;;;;;;4707219;30;45643;-58
2022/12/01 05:48:08;;;;;;;;;45.75;39.25;;;;;;;;4707680;30;45492;-58
2022/12/01 05:50:37;;;;;;;;;48.50;38.75;;;;;;;;4707124;30;46175;-58
2022/12/01 05:53:02;;;;;;;;;47.25;39.25;;;;;;;;4702359;30;45380;-58
2022/12/01 05:55:27;;;;;;;;;47.00;37.00;;;;;;;;4701803;30;45171;-58
2022/12/01 05:57:52;;;;;;;;;48.75;39.00;;;;;;;;4702703;30;45233;-58
2022/12/01 06:00:18;;;;;;;;;49.75;38.25;;;;;;;;4698909;30;46071;-59
2022/12/01 06:02:43;;;;;;;;;51.75;38.75;;;;;;;;4707028;30;45341;-58
2022/12/01 06:05:08;;;;;;;;;49.50;39.25;;;;;;;;4707386;30;45389;-58
2022/12/01 06:07:34;;;;;;;;;45.50;39.00;;;;;;;;4703432;30;45577;-58
2022/12/01 06:10:00;;;;;;;;;55.25;41.50;;;;;;;;4703103;30;45362;-58
2022/12/01 06:12:25;;;;;;;;;52.25;40.50;;;;;;;;4700023;30;45500;-58
2022/12/01 06:14:50;;;;;;;;;40.75;36.00;;;;;;;;4699774;30;45297;-58
2022/12/01 06:17:15;;;;;;;;;48.75;37.75;;;;;;;;4700108;30;45309;-58
2022/12/01 06:19:42;;;;;;;;;37.75;33.75;;;;;;;;4703821;30;46302;-58
2022/12/01 06:22:07;;;;;;;;;46.00;37.50;;;;;;;;4703914;30;45388;-58
2022/12/01 06:24:32;;;;;;;;;45.25;37.00;;;;;;;;4703071;30;45334;-58
2022/12/01 06:26:57;;;;;;;;;43.25;31.50;;;;;;;;4698579;30;46255;-58
2022/12/01 06:29:23;;;;;;;;;48.25;38.50;;;;;;;;4699988;30;45996;-58
2022/12/01 06:31:48;;;;;;;;;48.75;36.75;;;;;;;;4700354;30;45395;-58
2022/12/01 06:34:13;;;;;;;;;46.50;38.75;;;;;;;;4703317;30;45562;-58
2022/12/01 06:36:38;;;;;;;;;43.50;38.00;;;;;;;;4704272;30;45474;-57
2022/12/01 06:39:08;;;;;;;;;47.75;34.75;;;;;;;;4703062;30;46021;-58
2022/12/01 06:41:34;;;;;;;;;57.75;39.50;;;;;;;;4702743;30;45382;-57
2022/12/01 06:43:59;;;;;;;;;45.50;34.75;;;;;;;;4703706;30;45277;-58
2022/12/01 06:46:25;;;;;;;;;50.75;37.50;;;;;;;;4691020;30;45494;-58
2022/12/01 06:48:50;;;;;;;;;52.75;37.50;;;;;;;;4703312;30;46097;-58
2022/12/01 06:51:15;;;;;;;;;45.00;37.50;;;;;;;;4700317;30;45387;-58
2022/12/01 06:53:40;;;;;;;;;41.50;35.00;;;;;;;;4703312;30;45561;-58
2022/12/01 06:56:06;;;;;;;;;50.00;36.50;;;;;;;;4700490;30;45641;-57
2022/12/01 06:58:31;;;;;;;;;37.75;32.00;;;;;;;;4695886;30;46528;-57
2022/12/01 07:00:57;;;;;;;;;51.75;38.00;;;;;;;;4702061;30;45762;-57
2022/12/01 07:03:23;;;;;;;;;46.50;36.50;;;;;;;;4701568;30;45585;-57
2022/12/01 07:05:57;;;;;;;;;47.00;31.25;;;;;;;;4687604;30;45393;-57
2022/12/01 07:08:24;;;;;;;;;49.00;37.50;;;;;;;;4693540;30;47339;-57
2022/12/01 07:10:59;;;;;;;;;44.25;39.50;;;;;;;;4702091;30;45386;-58
2022/12/01 07:13:24;;;;;;;;;53.50;39.00;;;;;;;;4702021;30;45665;-56
2022/12/01 07:15:49;;;;;;;;;44.75;37.25;;;;;;;;4702767;30;45349;-57
2022/12/01 07:18:15;;;;;;;;;41.25;35.00;;;;;;;;4702514;30;45286;-57
2022/12/01 07:20:40;;;;;;;;;40.50;35.75;;;;;;;;4702871;30;45298;-56
2022/12/01 07:23:05;;;;;;;;;54.00;38.25;;;;;;;;4701705;30;45190;-58
2022/12/01 07:25:30;;;;;;;;;45.50;36.00;;;;;;;;4702912;30;45396;-58
2022/12/01 07:27:56;;;;;;;;;47.25;37.50;;;;;;;;4702178;30;46473;-57
2022/12/01 07:30:21;;;;;;;;;45.00;38.25;;;;;;;;4699101;30;45448;-56
2022/12/01 07:32:46;;;;;;;;;39.75;35.75;;;;;;;;4701243;30;45320;-57
2022/12/01 07:35:11;;;;;;;;;47.00;39.50;;;;;;;;4698036;30;45424;-57
2022/12/01 07:37:36;;;;;;;;;54.00;40.00;;;;;;;;4700531;30;46055;-57
2022/12/01 07:40:02;;;;;;;;;50.75;39.50;;;;;;;;4702635;30;45277;-57
2022/12/01 07:42:27;;;;;;;;;46.50;37.25;;;;;;;;4702802;30;45352;-58
2022/12/01 07:44:52;;;;;;;;;56.50;39.25;;;;;;;;4702379;30;45639;-57
2022/12/01 07:47:17;;;;;;;;;52.50;41.25;;;;;;;;4700662;30;45620;-58
2022/12/01 07:49:42;;;;;;;;;43.25;37.50;;;;;;;;4689108;30;45366;-56
2022/12/01 07:52:08;;;;;;;;;43.75;35.25;;;;;;;;4697753;30;45306;-57
2022/12/01 07:54:33;;;;;;;;;37.75;34.50;;;;;;;;4695299;30;45436;-52
2022/12/01 07:56:58;;;;;;;;;49.75;36.75;;;;;;;;4700851;30;46109;-57
2022/12/01 07:59:23;;;;;;;;;52.75;39.50;;;;;;;;4690157;30;45591;-56
2022/12/01 08:01:48;;;;;;;;;43.50;37.25;;;;;;;;4700979;30;45575;-56
2022/12/01 08:04:14;;;;;;;;;41.25;35.75;;;;;;;;4701343;30;45642;-58
2022/12/01 08:06:39;;;;;;;;;47.75;38.50;;;;;;;;4701074;30;45347;-58
2022/12/01 08:09:04;;;;;;;;;42.50;34.50;;;;;;;;4701952;30;45540;-58
2022/12/01 08:11:30;;;;;;;;;47.75;36.75;;;;;;;;4702344;30;45696;-57
2022/12/01 08:13:55;;;;;;;;;42.75;32.00;;;;;;;;4702987;30;45509;-58
2022/12/01 08:16:21;;;;;;;;;49.25;38.00;;;;;;;;4701905;30;45352;-58
2022/12/01 08:18:47;;;;;;;;;34.25;20.25;;;;;;;;4702445;30;45488;-58
2022/12/01 08:21:14;;;;;;;;;34.25;27.25;;;;;;;;4702590;30;45414;-58
2022/12/01 08:23:40;;;;;;;;;42.25;35.25;;;;;;;;4702674;30;45598;-58
2022/12/01 08:26:07;;;;;;;;;27.50;25.00;;;;;;;;4702403;30;46152;-55
2022/12/01 08:28:36;;;;;;;;;39.75;32.50;;;;;;;;4702067;30;45401;-58
2022/12/01 08:31:11;;;;;;;;;34.50;29.75;;;;;;;;4706671;30;45332;-55
2022/12/01 08:33:36;;;;;;;;;33.25;27.25;;;;;;;;4702167;30;45408;-56
2022/12/01 08:36:02;;;;;;;;;35.25;33.25;;;;;;;;4702391;30;46251;-57
2022/12/01 08:38:27;;;;;;;;;48.00;32.50;;;;;;;;4701173;30;45405;-56
2022/12/01 08:40:55;;;;;;;;;51.00;35.25;;;;;;;;4702294;30;45326;-56
2022/12/01 08:43:20;;;;;;;;;44.33;34.67;;;;;;;;4702032;30;45246;-55
2022/12/01 08:45:46;;;;;;;;;50.00;35.67;;;;;;;;4702058;30;45528;-56
2022/12/01 08:48:11;;;;;;;;;45.00;32.33;;;;;;;;4702245;30;45301;-57
2022/12/01 08:50:36;;;;;;;;;33.33;33.00;;;;;;;;4699806;30;45218;-57
2022/12/01 08:53:01;;;;;;;;;41.33;32.67;;;;;;;;4697757;30;45476;-56
2022/12/01 08:55:26;;;;;;;;;40.67;33.00;;;;;;;;4696687;30;45303;-57
2022/12/01 08:57:52;;;;;;;;;30.25;26.00;;;;;;;;4702123;30;46172;-56
2022/12/01 09:00:17;;;;;;;;;41.25;32.00;;;;;;;;4697795;30;46060;-57
2022/12/01 09:02:42;;;;;;;;;46.00;31.67;;;;;;;;4702126;30;45563;-57
2022/12/01 09:05:08;;;;;;;;;45.67;31.67;;;;;;;;4702212;30;45357;-57
2022/12/01 09:07:33;;;;;;;;;41.33;32.67;;;;;;;;4700015;30;45301;-57
2022/12/01 09:09:58;;;;;;;;;36.33;33.33;;;;;;;;4698702;30;45157;-57
2022/12/01 09:12:23;;;;;;;;;41.67;32.33;;;;;;;;4700438;30;45243;-55
2022/12/01 09:14:48;;;;;;;;;33.67;28.33;;;;;;;;4698171;30;46102;-55
2022/12/01 09:17:15;;;;;;;;;35.33;28.00;;;;;;;;4701523;30;45525;-57
2022/12/01 09:19:40;;;;;;;;;35.67;30.33;;;;;;;;4702097;30;45456;-57
2022/12/01 09:22:05;;;;;;;;;40.67;30.67;;;;;;;;4702015;30;45460;-56
2022/12/01 09:24:30;;;;;;;;;38.75;33.75;;;;;;;;4701115;30;45293;-56
2022/12/01 09:26:57;;;;;;;;;35.33;31.67;;;;;;;;4695783;30;45618;-55
2022/12/01 09:29:22;;;;;;;;;24.67;23.00;;;;;;;;4701714;30;45757;-57
2022/12/01 09:31:48;;;;;;;;;47.33;33.00;;;;;;;;4701484;30;45497;-56
2022/12/01 09:34:15;;;;;;;;;39.67;35.00;;;;;;;;4701561;30;45426;-57
2022/12/01 09:36:40;;;;;;;;;34.00;31.00;;;;;;;;4701663;30;45371;-57
2022/12/01 09:39:06;;;;;;;;;35.00;26.67;;;;;;;;4701692;30;45480;-54
2022/12/01 09:41:36;;;;;;;;;35.67;27.67;;;;;;;;4700719;30;45288;-57
2022/12/01 09:44:16;;;;;;;;;40.33;32.67;;;;;;;;4701539;30;45547;-55
2022/12/01 09:46:47;;;;;;;;;34.33;25.67;;;;;;;;4701537;30;45401;-57
2022/12/01 09:49:24;;;;;;;;;36.33;31.67;;;;;;;;4703076;30;45379;-57
2022/12/01 09:51:51;;;;;;;;;33.33;31.00;;;;;;;;4704651;30;45533;-57
2022/12/01 09:54:16;;;;;;;;;34.67;26.67;;;;;;;;4703702;30;46198;-57
2022/12/01 09:56:44;;;;;;;;;32.67;27.33;;;;;;;;4704637;30;45311;-56
2022/12/01 09:59:16;;;;;;;;;38.33;29.00;;;;;;;;4698312;30;45476;-56
2022/12/01 10:01:42;;;;;;;;;33.00;29.00;;;;;;;;4704557;30;45399;-57
2022/12/01 10:04:19;;;;;;;;;35.33;29.00;;;;;;;;4699285;30;46140;-57
2022/12/01 10:06:52;;;;;;;;;35.33;31.00;;;;;;;;4700572;30;45332;-55
2022/12/01 10:09:24;;;;;;;;;30.67;27.67;;;;;;;;4703830;30;45191;-57
2022/12/01 10:11:50;;;;;;;;;32.67;30.67;;;;;;;;4704394;30;45475;-57
2022/12/01 10:14:17;;;;;;;;;24.00;21.67;;;;;;;;4703853;30;45315;-57
2022/12/01 10:16:58;;;;;;;;;33.67;29.33;;;;;;;;4688194;30;45254;-57
2022/12/01 10:19:28;;;;;;;;;41.67;26.00;;;;;;;;4698798;30;45297;-56
2022/12/01 10:22:02;;;;;;;;;30.67;25.33;;;;;;;;4704329;30;45483;-57
2022/12/01 10:24:39;;;;;;;;;34.33;27.67;;;;;;;;4699230;30;45416;-57
2022/12/01 10:27:13;;;;;;;;;31.67;27.33;;;;;;;;4704220;30;45360;-55
2022/12/01 10:29:57;;;;;;;;;33.67;25.33;;;;;;;;4704109;30;45444;-57
2022/12/01 10:32:29;;;;;;;;;27.00;27.00;;;;;;;;4702889;30;45839;-57
2022/12/01 10:34:54;;;;;;;;;28.00;24.67;;;;;;;;4704155;30;46254;-56
2022/12/01 10:37:21;;;;;;;;;29.67;23.33;;;;;;;;4703678;30;45376;-57
2022/12/01 10:39:48;;;;;;;;;33.00;22.33;;;;;;;;4703986;30;45409;-56
2022/12/01 10:42:15;;;;;;;;;34.00;32.00;;;;;;;;4704212;30;45377;-56
2022/12/01 10:44:41;;;;;;;;;32.33;28.67;;;;;;;;4703676;30;45588;-57
2022/12/01 10:47:25;;;;;;;;;31.00;26.67;;;;;;;;4703359;30;45343;-57
2022/12/01 10:49:50;;;;;;;;;34.00;27.67;;;;;;;;4703848;30;45784;-56
2022/12/01 10:52:34;;;;;;;;;28.00;28.00;;;;;;;;4703602;30;46033;-57
2022/12/01 10:54:59;;;;;;;;;33.00;31.00;;;;;;;;4703782;30;46024;-57
2022/12/01 10:57:26;;;;;;;;;32.33;27.67;;;;;;;;4702981;30;45737;-54
2022/12/01 11:00:03;;;;;;;;;35.67;29.00;;;;;;;;4697540;30;45551;-57
2022/12/01 11:02:29;;;;;;;;;36.67;28.33;;;;;;;;4702869;30;45544;-56
2022/12/01 11:04:57;;;;;;;;;31.00;25.33;;;;;;;;4703549;30;45333;-56
2022/12/01 11:07:24;;;;;;;;;31.33;29.00;;;;;;;;4702340;30;45363;-56
2022/12/01 11:10:05;;;;;;;;;28.33;25.33;;;;;;;;4703646;30;45736;-57
2022/12/01 11:12:30;;;;;;;;;35.00;29.67;;;;;;;;4703302;30;45493;-58
2022/12/01 11:14:56;;;;;;;;;38.00;27.33;;;;;;;;4703127;30;46897;-57
2022/12/01 11:17:27;;;;;;;;;26.33;21.33;;;;;;;;4702960;30;45473;-57
2022/12/01 11:19:52;;;;;;;;;29.33;26.00;;;;;;;;4702427;30;45490;-58
2022/12/01 11:22:22;;;;;;;;;28.67;25.33;;;;;;;;4702922;30;45466;-58
2022/12/01 11:24:51;;;;;;;;;26.33;22.33;;;;;;;;4703026;30;45337;-58
2022/12/01 11:27:21;;;;;;;;;33.33;26.00;;;;;;;;4702652;30;45324;-58
2022/12/01 11:29:48;;;;;;;;;32.67;25.67;;;;;;;;4703157;30;45302;-58
2022/12/01 11:32:17;;;;;;;;;32.33;29.67;;;;;;;;4710172;30;45731;-57
2022/12/01 11:34:47;;;;;;;;;31.00;27.33;;;;;;;;4702840;30;46240;-58
2022/12/01 11:37:15;;;;;;;;;35.00;25.67;;;;;;;;4702759;30;45366;-56
2022/12/01 11:39:42;;;;;;;;;34.00;30.00;;;;;;;;4703045;30;45295;-57
2022/12/01 11:42:10;;;;;;;;;28.00;24.00;;;;;;;;4703097;30;45519;-57
2022/12/01 11:44:37;;;;;;;;;32.33;27.00;;;;;;;;4702541;30;45281;-57
2022/12/01 11:47:13;;;;;;;;;40.00;33.33;;;;;;;;4702680;30;45724;-55
2022/12/01 11:49:39;;;;;;;;;36.00;25.67;;;;;;;;4702745;30;45396;-57
2022/12/01 11:52:23;;;;;;;;;32.67;28.67;;;;;;;;4703014;30;45444;-57
2022/12/01 11:54:59;;;;;;;;;31.33;27.00;;;;;;;;4702709;30;46197;-56
2022/12/01 11:57:25;;;;;;;;;32.00;29.00;;;;;;;;4702439;30;45400;-57
2022/12/01 11:59:50;;;;;;;;;35.67;28.33;;;;;;;;4701789;30;45535;-58
2022/12/01 12:02:33;;;;;;;;;34.00;26.67;;;;;;;;4702285;30;45521;-58
2022/12/01 12:05:10;;;;;;;;;35.33;27.00;;;;;;;;4697989;30;46971;-56
2022/12/01 12:07:54;;;;;;;;;42.33;30.00;;;;;;;;4701773;30;45655;-57
2022/12/01 12:10:38;;;;;;;;;36.67;31.00;;;;;;;;4702425;30;45412;-56
2022/12/01 12:13:25;;;;;;;;;37.33;33.33;;;;;;;;4691515;30;45683;-56
2022/12/01 12:15:50;;;;;;;;;37.67;31.00;;;;;;;;4702080;30;47088;-58
2022/12/01 12:18:42;;;;;;;;;31.25;29.00;;;;;;;;4702142;30;45356;-56
2022/12/01 12:21:10;;;;;;;;;27.67;19.00;;;;;;;;4692829;30;45222;-57
2022/12/01 12:23:44;;;;;;;;;28.33;26.00;;;;;;;;4702021;30;45488;-56
2022/12/01 12:26:09;;;;;;;;;34.33;29.67;;;;;;;;4702466;30;45477;-56
2022/12/01 12:28:58;;;;;;;;;36.00;24.00;;;;;;;;4702019;30;45161;-57
2022/12/01 12:31:42;;;;;;;;;32.00;27.00;;;;;;;;4661095;30;45437;-57
2022/12/01 12:34:13;;;;;;;;;34.00;31.33;;;;;;;;4693736;30;45521;-60
2022/12/01 12:36:38;;;;;;;;;42.33;28.67;;;;;;;;4701433;30;45647;-56
2022/12/01 12:39:15;;;;;;;;;35.33;31.00;;;;;;;;4698781;30;45304;-58
2022/12/01 12:42:07;;;;;;;;;39.00;28.00;;;;;;;;4702634;30;45435;-57
2022/12/01 12:44:32;;;;;;;;;39.33;31.33;;;;;;;;4696766;30;45745;-56
2022/12/01 12:47:16;;;;;;;;;35.25;29.75;;;;;;;;4702181;30;46169;-56
2022/12/01 12:49:56;;;;;;;;;32.00;26.67;;;;;;;;4702337;30;45314;-57
2022/12/01 12:52:35;;;;;;;;;33.33;26.67;;;;;;;;4701994;30;45345;-57
2022/12/01 12:55:10;;;;;;;;;39.00;34.33;;;;;;;;4702325;30;45565;-57
2022/12/01 12:57:44;;;;;;;;;32.00;27.67;;;;;;;;4698720;30;46202;-57
2022/12/01 13:00:14;;;;;;;;;35.00;30.33;;;;;;;;4696493;30;46198;-57
2022/12/01 13:02:52;;;;;;;;;41.00;32.00;;;;;;;;4702064;30;45316;-58
2022/12/01 13:05:20;;;;;;;;;36.00;31.33;;;;;;;;4701769;30;45360;-56
2022/12/01 13:07:48;;;;;;;;;44.33;33.00;;;;;;;;4701778;30;45369;-56
2022/12/01 13:10:14;;;;;;;;;47.67;35.67;;;;;;;;4701388;30;45324;-57
2022/12/01 13:12:42;;;;;;;;;30.50;27.25;;;;;;;;4697194;30;45258;-57
2022/12/01 13:15:18;;;;;;;;;34.67;25.33;;;;;;;;4701866;30;45279;-57
2022/12/01 13:17:47;;;;;;;;;33.67;27.00;;;;;;;;4699616;30;47160;-57
2022/12/01 13:20:12;;;;;;;;;43.00;29.67;;;;;;;;4697030;30;45416;-58
2022/12/01 13:22:38;;;;;;;;;31.67;27.33;;;;;;;;4701513;30;45320;-57
2022/12/01 13:25:03;;;;;;;;;26.00;22.67;;;;;;;;4704903;30;45381;-57
2022/12/01 13:27:32;;;;;;;;;26.00;19.33;;;;;;;;4699429;30;46132;-57
2022/12/01 13:29:58;;;;;;;;;39.33;25.33;;;;;;;;4704817;30;45470;-58
2022/12/01 13:32:29;;;;;;;;;24.67;21.00;;;;;;;;4704524;30;45337;-57
2022/12/01 13:34:55;;;;;;;;;32.67;26.67;;;;;;;;4704836;30;45585;-56
2022/12/01 13:37:34;;;;;;;;;33.00;26.67;;;;;;;;4704064;30;46266;-57
2022/12/01 13:40:19;;;;;;;;;39.00;28.00;;;;;;;;4704798;30;45321;-57
2022/12/01 13:42:53;;;;;;;;;31.00;28.33;;;;;;;;4703898;30;45335;-57
2022/12/01 13:45:19;;;;;;;;;35.00;27.67;;;;;;;;4699575;30;45517;-57
2022/12/01 13:47:51;;;;;;;;;28.67;25.67;;;;;;;;4704571;30;45428;-57
2022/12/01 13:50:34;;;;;;;;;34.00;26.00;;;;;;;;4704015;30;45393;-57
2022/12/01 13:53:11;;;;;;;;;24.33;22.67;;;;;;;;4700089;30;45255;-57
2022/12/01 13:56:06;;;;;;;;;30.67;24.33;;;;;;;;4704247;30;45512;-55
2022/12/01 13:58:31;;;;;;;;;33.33;28.67;;;;;;;;4673267;30;45503;-56
2022/12/01 14:01:33;;;;;;;;;36.67;24.67;;;;;;;;4703198;30;45464;-56
2022/12/01 14:04:01;;;;;;;;;32.67;29.67;;;;;;;;4616483;30;45396;-57
2022/12/01 14:06:29;;;;;;;;;24.33;21.67;;;;;;;;4688044;30;45415;-56
2022/12/01 14:09:03;;;;;;;;;24.33;22.67;;;;;;;;4703961;30;46225;-56
2022/12/01 14:11:29;;;;;;;;;26.33;24.33;;;;;;;;4693694;30;46602;-56
2022/12/01 14:13:56;;;;;;;;;24.00;23.67;;;;;;;;4704489;30;45502;-56
2022/12/01 14:16:21;;;;;;;;;31.67;26.33;;;;;;;;4704075;30;45409;-57
2022/12/01 14:18:52;;;;;;;;;36.00;17.67;;;;;;;;4704223;30;45291;-57
2022/12/01 14:21:38;;;;;;;;;29.33;24.33;;;;;;;;4704201;30;45462;-56
2022/12/01 14:24:05;;;;;;;;;27.00;24.67;;;;;;;;4704127;30;45290;-57
2022/12/01 14:26:31;;;;;;;;;31.33;25.00;;;;;;;;4703931;30;45306;-58
2022/12/01 14:28:59;;;;;;;;;32.33;25.33;;;;;;;;4704004;30;46170;-58
2022/12/01 14:31:27;;;;;;;;;28.33;23.00;;;;;;;;4703450;30;45458;-58
2022/12/01 14:34:02;;;;;;;;;28.00;22.67;;;;;;;;4688359;30;45429;-58
2022/12/01 14:36:27;;;;;;;;;26.33;19.67;;;;;;;;4701487;30;45422;-56
2022/12/01 14:38:58;;;;;;;;;35.33;26.67;;;;;;;;4698371;30;46002;-56
2022/12/01 14:41:25;;;;;;;;;35.00;24.67;;;;;;;;4697463;30;45674;-57
2022/12/01 14:44:05;;;;;;;;;31.67;25.00;;;;;;;;4701806;30;45440;-57
2022/12/01 14:46:54;;;;;;;;;35.00;26.00;;;;;;;;4691776;30;45604;-57
2022/12/01 14:49:21;;;;;;;;;31.33;26.00;;;;;;;;4662171;30;46159;-58
2022/12/01 14:51:49;;;;;;;;;32.00;25.50;;;;;;;;4703749;30;45293;-57
2022/12/01 14:54:19;;;;;;;;;30.33;26.00;;;;;;;;4697691;30;45365;-58
2022/12/01 14:56:45;;;;;;;;;31.67;26.33;;;;;;;;4703546;30;45489;-57
2022/12/01 14:59:21;;;;;;;;;23.67;21.67;;;;;;;;4702382;30;45500;-58
2022/12/01 15:01:49;;;;;;;;;27.67;25.33;;;;;;;;4696593;30;45406;-58
2022/12/01 15:04:14;;;;;;;;;33.33;27.00;;;;;;;;4703127;30;45453;-58
2022/12/01 15:06:40;;;;;;;;;27.00;23.67;;;;;;;;4703698;30;45292;-58
2022/12/01 15:09:11;;;;;;;;;32.00;27.00;;;;;;;;4703253;30;45558;-58
2022/12/01 15:11:40;;;;;;;;;34.00;29.67;;;;;;;;4703048;30;45371;-57
2022/12/01 15:14:20;;;;;;;;;40.33;22.67;;;;;;;;4704095;30;45461;-58
2022/12/01 15:16:45;;;;;;;;;32.33;28.00;;;;;;;;4703203;30;45533;-58
2022/12/01 15:19:29;;;;;;;;;28.67;23.67;;;;;;;;4698174;30;45521;-58
2022/12/01 15:21:54;;;;;;;;;32.33;29.33;;;;;;;;4703035;30;45341;-55
2022/12/01 15:24:20;;;;;;;;;43.00;30.00;;;;;;;;4702473;30;45242;-57
2022/12/01 15:26:47;;;;;;;;;37.33;30.33;;;;;;;;4702837;30;45631;-58
2022/12/01 15:29:13;;;;;;;;;32.67;29.00;;;;;;;;4699070;30;46232;-58
2022/12/01 15:31:38;;;;;;;;;36.67;26.67;;;;;;;;4701036;30;45480;-58
2022/12/01 15:34:04;;;;;;;;;33.33;29.67;;;;;;;;4698069;30;45898;-57
2022/12/01 15:36:29;;;;;;;;;34.67;27.00;;;;;;;;4701954;30;45514;-58
2022/12/01 15:38:55;;;;;;;;;28.33;26.33;;;;;;;;4694643;30;46334;-59
2022/12/01 15:41:21;;;;;;;;;35.33;28.33;;;;;;;;4694629;30;45317;-58
2022/12/01 15:43:53;;;;;;;;;32.67;27.33;;;;;;;;4699151;30;45602;-57
2022/12/01 15:46:25;;;;;;;;;37.00;29.67;;;;;;;;4700321;30;45290;-58
2022/12/01 15:49:05;;;;;;;;;34.00;26.00;;;;;;;;4698649;30;45418;-58
2022/12/01 15:51:30;;;;;;;;;28.00;23.67;;;;;;;;4697218;30;45590;-58
2022/12/01 15:53:57;;;;;;;;;34.33;28.67;;;;;;;;4702283;30;45332;-57
2022/12/01 15:56:24;;;;;;;;;31.00;29.00;;;;;;;;4697295;30;45306;-58
2022/12/01 15:58:50;;;;;;;;;41.67;28.67;;;;;;;;4697021;30;46169;-56
2022/12/01 16:01:19;;;;;;;;;35.00;29.00;;;;;;;;4701553;30;45330;-58
2022/12/01 16:03:50;;;;;;;;;35.33;29.00;;;;;;;;4702979;30;45467;-58
2022/12/01 16:06:16;;;;;;;;;32.00;31.00;;;;;;;;4701587;30;45737;-58
2022/12/01 16:08:50;;;;;;;;;41.00;30.00;;;;;;;;4702445;30;46110;-57
2022/12/01 16:11:16;;;;;;;;;40.00;29.00;;;;;;;;4698683;30;45519;-57
2022/12/01 16:13:42;;;;;;;;;29.67;29.00;;;;;;;;4699404;30;45372;-58
2022/12/01 16:16:22;;;;;;;;;42.33;31.33;;;;;;;;4701566;30;45332;-57
2022/12/01 16:18:56;;;;;;;;;34.33;30.00;;;;;;;;4702307;30;46086;-57
2022/12/01 16:21:22;;;;;;;;;35.33;28.00;;;;;;;;4697154;30;45614;-57
2022/12/01 16:23:47;;;;;;;;;35.33;30.00;;;;;;;;4693399;30;45731;-57
2022/12/01 16:26:13;;;;;;;;;41.33;32.00;;;;;;;;4694230;30;45697;-59
2022/12/01 16:28:38;;;;;;;;;40.67;32.33;;;;;;;;4700720;30;46197;-56
2022/12/01 16:31:04;;;;;;;;;42.67;31.33;;;;;;;;4694100;30;45319;-55
2022/12/01 16:33:31;;;;;;;;;36.33;31.33;;;;;;;;4676482;30;45368;-58
2022/12/01 16:35:58;;;;;;;;;40.00;32.33;;;;;;;;4701233;30;45392;-56
2022/12/01 16:38:24;;;;;;;;;41.67;33.00;;;;;;;;4701486;30;45401;-56
2022/12/01 16:40:54;;;;;;;;;42.67;31.67;;;;;;;;4702222;30;45443;-57
2022/12/01 16:43:21;;;;;;;;;41.67;33.33;;;;;;;;4690685;30;45211;-56
2022/12/01 16:45:51;;;;;;;;;34.00;31.33;;;;;;;;4690713;30;45464;-58
2022/12/01 16:48:18;;;;;;;;;37.00;36.00;;;;;;;;4685224;30;45355;-57
2022/12/01 16:50:44;;;;;;;;;42.00;34.33;;;;;;;;4687059;30;45358;-57
2022/12/01 16:53:10;;;;;;;;;35.67;33.00;;;;;;;;4688880;30;45318;-57
2022/12/01 16:55:35;;;;;;;;;42.67;35.67;;;;;;;;4694134;30;45580;-58
2022/12/01 16:58:01;;;;;;;;;39.25;33.75;;;;;;;;4694287;30;47369;-58
2022/12/01 17:00:28;;;;;;;;;44.75;35.00;;;;;;;;4699993;30;45554;-57
2022/12/01 17:02:53;;;;;;;;;38.33;34.67;;;;;;;;4697814;30;45352;-58
2022/12/01 17:05:18;;;;;;;;;43.33;36.33;;;;;;;;4699955;30;45475;-56
2022/12/01 17:07:43;;;;;;;;;44.67;34.33;;;;;;;;4697605;30;46212;-57
2022/12/01 17:10:09;;;;;;;;;40.33;32.67;;;;;;;;4700701;30;45289;-56
2022/12/01 17:12:34;;;;;;;;;45.67;34.67;;;;;;;;4694010;30;45479;-57
2022/12/01 17:14:59;;;;;;;;;42.33;33.67;;;;;;;;4700846;30;45485;-58
2022/12/01 17:17:24;;;;;;;;;47.25;37.00;;;;;;;;4697173;30;45548;-58
2022/12/01 17:19:52;;;;;;;;;49.25;37.50;;;;;;;;4691627;30;45518;-56
2022/12/01 17:22:17;;;;;;;;;38.25;34.25;;;;;;;;4677123;30;45380;-58
2022/12/01 17:24:43;;;;;;;;;45.25;36.50;;;;;;;;4695309;30;45342;-57
2022/12/01 17:27:08;;;;;;;;;47.25;36.50;;;;;;;;4698015;30;48068;-58
2022/12/01 17:29:33;;;;;;;;;47.50;38.00;;;;;;;;4700434;30;45308;-57
2022/12/01 17:31:58;;;;;;;;;45.25;36.75;;;;;;;;4704761;30;45305;-57
2022/12/01 17:34:23;;;;;;;;;38.33;34.00;;;;;;;;4703606;30;45256;-57
2022/12/01 17:36:50;;;;;;;;;46.00;36.00;;;;;;;;4700703;30;46061;-58
2022/12/01 17:39:15;;;;;;;;;50.50;40.00;;;;;;;;4700714;30;45460;-57
2022/12/01 17:41:41;;;;;;;;;52.75;39.75;;;;;;;;4699539;30;45412;-58
2022/12/01 17:44:06;;;;;;;;;46.00;36.00;;;;;;;;4695018;30;45432;-58
2022/12/01 17:46:31;;;;;;;;;41.75;36.75;;;;;;;;4696045;30;45366;-58
2022/12/01 17:48:57;;;;;;;;;43.00;36.25;;;;;;;;4699906;30;45576;-58
2022/12/01 17:51:22;;;;;;;;;49.75;37.75;;;;;;;;4694973;30;45583;-59
2022/12/01 17:53:48;;;;;;;;;41.75;35.00;;;;;;;;4691171;30;45673;-57
2022/12/01 17:56:14;;;;;;;;;42.50;35.50;;;;;;;;4699505;30;46231;-59
2022/12/01 17:58:40;;;;;;;;;40.50;35.50;;;;;;;;4696850;30;45374;-59
2022/12/01 18:01:10;;;;;;;;;54.00;36.50;;;;;;;;4699665;30;45333;-59
2022/12/01 18:03:35;;;;;;;;;41.00;37.00;;;;;;;;4701096;30;45614;-58
2022/12/01 18:06:01;;;;;;;;;50.75;37.25;;;;;;;;4700683;30;45416;-60
2022/12/01 18:08:27;;;;;;;;;40.67;32.00;;;;;;;;4699799;30;45439;-60
2022/12/01 18:10:52;;;;;;;;;46.00;37.00;;;;;;;;4699750;30;45459;-58
2022/12/01 18:13:17;;;;;;;;;44.00;37.00;;;;;;;;4698633;30;45504;-58
2022/12/01 18:15:43;;;;;;;;;37.75;28.75;;;;;;;;4699546;30;45458;-59
2022/12/01 18:18:08;;;;;;;;;44.50;36.25;;;;;;;;4703452;30;45333;-59
2022/12/01 18:20:33;;;;;;;;;40.25;34.50;;;;;;;;4702995;30;45490;-59
2022/12/01 18:22:59;;;;;;;;;36.33;34.00;;;;;;;;4704125;30;45389;-59
2022/12/01 18:25:24;;;;;;;;;54.00;40.25;;;;;;;;4703855;30;45558;-58
2022/12/01 18:27:52;;;;;;;;;37.25;32.50;;;;;;;;4704373;30;45396;-58
2022/12/01 18:30:17;;;;;;;;;48.75;37.25;;;;;;;;4702029;30;45242;-58
2022/12/01 18:32:42;;;;;;;;;41.00;33.33;;;;;;;;4703060;30;45396;-59
2022/12/01 18:35:08;;;;;;;;;42.33;33.67;;;;;;;;4703325;30;45369;-59
2022/12/01 18:37:35;;;;;;;;;25.67;23.00;;;;;;;;4702198;30;45267;-59
2022/12/01 18:40:00;;;;;;;;;39.33;33.00;;;;;;;;4703860;30;45502;-59
2022/12/01 18:42:25;;;;;;;;;47.33;35.00;;;;;;;;4703524;30;45267;-60
2022/12/01 18:44:51;;;;;;;;;43.00;33.00;;;;;;;;4702644;30;45373;-59
2022/12/01 18:47:16;;;;;;;;;42.67;34.33;;;;;;;;4703115;30;45550;-60
2022/12/01 18:49:41;;;;;;;;;39.67;32.00;;;;;;;;4698277;30;45597;-60
2022/12/01 18:52:06;;;;;;;;;41.00;32.00;;;;;;;;4687679;30;45361;-60
2022/12/01 18:54:31;;;;;;;;;42.00;33.67;;;;;;;;4693051;30;45484;-59
2022/12/01 18:56:57;;;;;;;;;47.00;37.00;;;;;;;;4697148;30;45676;-60
2022/12/01 18:59:23;;;;;;;;;32.33;26.00;;;;;;;;4697850;30;45498;-60
2022/12/01 19:01:48;;;;;;;;;42.33;32.67;;;;;;;;4700700;30;45721;-59
2022/12/01 19:04:15;;;;;;;;;38.00;33.33;;;;;;;;4697410;30;45643;-60
2022/12/01 19:06:41;;;;;;;;;43.67;35.67;;;;;;;;4690267;30;45546;-59
2022/12/01 19:09:08;;;;;;;;;38.67;33.33;;;;;;;;4701870;30;45368;-58
2022/12/01 19:11:34;;;;;;;;;35.67;30.00;;;;;;;;4701889;30;46200;-59
2022/12/01 19:13:59;;;;;;;;;43.25;36.75;;;;;;;;4698247;30;45356;-59
2022/12/01 19:16:25;;;;;;;;;38.00;31.33;;;;;;;;4700548;30;45661;-59
2022/12/01 19:18:50;;;;;;;;;40.33;31.33;;;;;;;;4699582;30;45553;-59
2022/12/01 19:21:17;;;;;;;;;39.33;33.33;;;;;;;;4701565;30;45667;-59
2022/12/01 19:23:42;;;;;;;;;35.67;31.67;;;;;;;;4697817;30;46277;-59
2022/12/01 19:26:10;;;;;;;;;44.33;36.00;;;;;;;;4702509;30;45348;-59
2022/12/01 19:28:36;;;;;;;;;38.67;31.67;;;;;;;;4700950;30;45515;-59
2022/12/01 19:34:04;;;;;;;;;33.33;29.67;;;;;;;;4698025;30;45414;-59
2022/12/01 19:36:29;;;;;;;;;23.67;17.67;;;;;;;;4700591;30;45281;-58
2022/12/01 19:38:55;;;;;;;;;39.67;28.33;;;;;;;;4698065;30;45411;-58
2022/12/01 19:41:23;;;;;;;;;43.25;34.00;;;;;;;;4697490;30;45462;-58
2022/12/01 19:43:48;;;;;;;;;38.00;29.67;;;;;;;;4687073;30;45976;-59
2022/12/01 19:46:15;;;;;;;;;45.67;29.67;;;;;;;;4702935;30;45250;-60
2022/12/01 19:48:40;;;;;;;;;36.33;31.00;;;;;;;;4698256;30;45507;-59
2022/12/01 19:51:06;;;;;;;;;40.00;33.33;;;;;;;;4700916;30;45697;-59
2022/12/01 19:53:31;;;;;;;;;35.67;30.67;;;;;;;;4691107;30;45508;-59
2022/12/01 19:56:00;;;;;;;;;45.67;33.67;;;;;;;;4686313;30;45445;-59